Time;durP1;ratioP1;P1;durP2;ratioP2;P2;SDS_P1;SDS_P2;PMS_P1;PMS_P2;Temp;Humidity;BMP_temperature;BMP_pressure;BME280_temperature;BME280_humidity;BME280_pressure;Samples;Min_cycle;Max_cycle;Signal;HPM_P1;HPM_P2
2022/06/09 00:05:37;;;;;;;7.40;3.10;;;;;;;15.44;100.00;99860.75;20994052;28;20105;-68
2022/06/09 00:15:38;;;;;;;7.00;3.75;;;;;;;15.40;100.00;99867.94;20994145;28;20135;-68
2022/06/09 00:25:40;;;;;;;6.45;2.83;;;;;;;15.31;100.00;99874.47;20992376;28;20093;-67
2022/06/09 00:35:42;;;;;;;6.35;2.60;;;;;;;15.28;100.00;99881.63;20989966;28;20052;-67
2022/06/09 00:45:56;;;;;;;6.95;2.58;;;;;;;15.34;100.00;99897.22;20991209;28;20048;-68
2022/06/09 00:56:00;;;;;;;4.57;2.30;;;;;;;15.35;100.00;99899.78;20990738;28;20037;-67
2022/06/09 01:06:09;;;;;;;5.37;3.20;;;;;;;15.33;100.00;99898.13;20989144;28;20040;-67
2022/06/09 01:16:38;;;;;;;7.07;3.22;;;;;;;15.36;100.00;99903.28;20988919;28;20512;-69
2022/06/09 01:26:56;;;;;;;6.38;3.33;;;;;;;15.29;100.00;99899.22;20987575;28;20495;-68
2022/06/09 01:37:01;;;;;;;6.72;3.83;;;;;;;15.11;100.00;99919.28;20986456;28;20048;-68
2022/06/09 01:47:02;;;;;;;12.70;4.28;;;;;;;14.94;100.00;99919.97;20986018;28;20455;-68
2022/06/09 01:57:17;;;;;;;6.50;3.47;;;;;;;14.99;100.00;99922.44;20985268;28;20110;-69
2022/06/09 02:07:20;;;;;;;7.10;3.80;;;;;;;15.03;100.00;99930.16;20984183;28;20056;-68
2022/06/09 02:17:22;;;;;;;6.53;3.80;;;;;;;15.03;100.00;99924.88;20983819;28;20052;-68
2022/06/09 02:27:23;;;;;;;7.05;3.70;;;;;;;14.92;100.00;99940.28;20983346;28;20417;-68
2022/06/09 02:37:24;;;;;;;8.40;2.80;;;;;;;14.72;100.00;99940.25;20981933;28;20052;-68
2022/06/09 02:47:26;;;;;;;7.03;2.35;;;;;;;14.64;100.00;99951.09;20982691;28;20040;-69
2022/06/09 02:57:29;;;;;;;9.10;2.60;;;;;;;14.61;100.00;99957.34;20981041;28;20059;-68
2022/06/09 03:07:30;;;;;;;5.93;2.65;;;;;;;14.66;100.00;99972.09;20981376;28;20085;-68
2022/06/09 03:17:32;;;;;;;4.75;2.10;;;;;;;14.50;100.00;99985.88;20981654;28;20404;-68
2022/06/09 03:27:33;;;;;;;6.57;2.80;;;;;;;14.37;100.00;99989.84;20980361;28;20049;-68
2022/06/09 03:37:35;;;;;;;4.20;2.55;;;;;;;14.26;100.00;99998.16;20980201;28;20106;-68
2022/06/09 03:47:37;;;;;;;6.82;2.30;;;;;;;14.24;100.00;100007.03;20979729;28;20049;-68
2022/06/09 03:57:39;;;;;;;9.32;2.67;;;;;;;14.11;100.00;100004.00;20979803;28;20044;-68
2022/06/09 04:07:41;;;;;;;9.88;3.00;;;;;;;14.05;100.00;100020.88;20985569;28;20212;-68
2022/06/09 04:17:44;;;;;;;4.82;2.45;;;;;;;13.93;100.00;100026.56;20991814;28;20055;-68
2022/06/09 04:27:46;;;;;;;11.50;3.13;;;;;;;13.92;100.00;100035.38;20992117;28;20051;-69
2022/06/09 04:37:59;;;;;;;6.63;2.83;;;;;;;15.27;100.00;100025.00;20989824;28;20056;-68
2022/06/09 04:48:02;;;;;;;6.70;3.25;;;;;;;15.59;100.00;100039.50;20990697;28;20072;-68
2022/06/09 04:58:04;;;;;;;6.57;3.40;;;;;;;14.87;100.00;100048.56;20988749;28;20052;-68
2022/06/09 05:08:06;;;;;;;9.07;3.13;;;;;;;14.64;100.00;100061.75;20988954;28;20048;-69
2022/06/09 05:18:08;;;;;;;10.05;2.70;;;;;;;14.60;100.00;100070.69;20987932;28;20107;-69
2022/06/09 05:28:09;;;;;;;11.57;2.53;;;;;;;14.61;100.00;100083.81;20987573;28;20053;-69
2022/06/09 05:48:32;;;;;;;8.70;2.00;;;;;;;15.02;100.00;100098.97;20986277;28;20448;-66
2022/06/09 05:58:35;;;;;;;8.52;2.20;;;;;;;15.18;100.00;100115.03;20984004;28;20102;-66
2022/06/09 06:08:38;;;;;;;6.82;1.90;;;;;;;15.09;100.00;100127.69;20982823;28;20086;-66
2022/06/09 06:18:39;;;;;;;10.05;2.00;;;;;;;15.35;100.00;100139.00;20983434;28;20052;-66
2022/06/09 06:28:41;;;;;;;10.30;2.33;;;;;;;15.50;100.00;100162.13;20982536;28;20497;-66
2022/06/09 06:38:43;;;;;;;7.03;1.60;;;;;;;15.72;100.00;100172.72;20982574;28;20044;-66
2022/06/09 06:48:45;;;;;;;9.82;2.38;;;;;;;15.57;100.00;100190.00;20981729;28;20504;-66
2022/06/09 06:58:47;;;;;;;6.93;1.65;;;;;;;15.79;100.00;100215.56;20981208;28;20049;-66
2022/06/09 07:08:49;;;;;;;10.27;1.85;;;;;;;15.78;100.00;100227.03;20937943;28;20045;-66
2022/06/09 07:18:51;;;;;;;5.57;1.50;;;;;;;16.65;100.00;100236.59;20961341;28;20482;-66
2022/06/09 07:28:52;;;;;;;7.63;1.65;;;;;;;16.73;100.00;100249.53;20890198;28;20049;-66
2022/06/09 07:38:53;;;;;;;9.23;1.85;;;;;;;16.81;100.00;100260.63;20919559;28;20703;-65
2022/06/09 07:48:56;;;;;;;8.50;1.90;;;;;;;16.68;100.00;100265.56;20987903;28;20102;-65
2022/06/09 07:59:00;;;;;;;9.68;1.92;;;;;;;16.82;95.37;100267.66;20987479;28;20044;-66
2022/06/09 08:09:01;;;;;;;8.98;1.88;;;;;;;17.26;91.68;100278.91;20986822;28;20098;-65
2022/06/09 08:19:03;;;;;;;8.20;1.65;;;;;;;17.49;89.27;100267.25;20909074;28;20407;-65
2022/06/09 08:29:08;;;;;;;6.63;1.48;;;;;;;18.23;87.66;100274.38;20901965;28;20045;-66
2022/06/09 08:39:09;;;;;;;9.05;2.13;;;;;;;17.59;89.46;100300.31;20901057;28;20115;-65
2022/06/09 08:49:38;;;;;;;5.68;1.55;;;;;;;17.73;88.37;100309.41;20899611;28;20060;-65
2022/06/09 08:59:42;;;;;;;9.50;1.70;;;;;;;18.14;83.30;100310.97;20900276;28;20405;-66
2022/06/09 09:09:45;;;;;;;8.83;1.87;;;;;;;18.12;79.65;100304.03;20898952;28;20755;-65
2022/06/09 09:20:06;;;;;;;8.55;1.38;;;;;;;18.26;77.92;100306.88;20898954;28;20053;-66
2022/06/09 09:30:25;;;;;;;6.53;1.77;;;;;;;18.31;78.40;100312.81;20897505;28;20551;-65
2022/06/09 09:40:43;;;;;;;7.75;1.60;;;;;;;17.98;82.42;100322.41;20897338;28;20106;-65
2022/06/09 09:50:52;;;;;;;6.90;1.10;;;;;;;18.78;71.98;100336.13;20896860;28;20496;-65
2022/06/09 10:00:57;;;;;;;6.90;1.60;;;;;;;18.91;73.59;100331.03;20895717;28;20044;-66
2022/06/09 10:10:59;;;;;;;9.73;1.60;;;;;;;18.96;71.67;100321.06;20904139;28;20090;-66
2022/06/09 10:21:18;;;;;;;5.97;1.50;;;;;;;19.38;69.57;100341.00;20975927;28;20056;-65
2022/06/09 10:31:32;;;;;;;8.75;1.90;;;;;;;19.78;69.29;100333.53;20975265;28;20047;-66
2022/06/09 10:41:49;;;;;;;10.40;1.75;;;;;;;19.33;77.04;100337.72;20975586;28;20413;-65
2022/06/09 11:02:33;;;;;;;7.75;1.40;;;;;;;19.27;72.55;100341.56;20974131;28;20540;-66
2022/06/09 11:12:42;;;;;;;10.05;2.08;;;;;;;20.24;64.95;100330.03;20952885;28;20148;-66
2022/06/09 11:22:59;;;;;;;8.88;1.52;;;;;;;19.59;65.40;100339.81;20907582;28;20048;-66
2022/06/09 11:33:32;;;;;;;5.00;1.48;;;;;;;20.91;59.95;100343.06;20906365;28;20049;-65
2022/06/09 11:43:40;;;;;;;8.90;1.80;;;;;;;20.79;60.31;100336.66;20905829;28;20049;-69
2022/06/09 11:53:47;;;;;;;10.00;2.10;;;;;;;20.45;61.66;100338.59;20904922;28;20071;-69
2022/06/09 12:04:23;;;;;;;6.88;1.73;;;;;;;19.85;62.17;100340.25;20903635;28;20045;-68
2022/06/09 12:14:33;;;;;;;5.43;1.55;;;;;;;20.54;58.86;100326.59;20941341;28;20052;-68
2022/06/09 12:25:01;;;;;;;7.93;2.20;;;;;;;20.30;61.96;100331.50;20983632;28;20049;-68
2022/06/09 12:35:14;;;;;;;7.00;1.52;;;;;;;20.22;60.41;100337.25;20984531;28;20048;-68
2022/06/09 12:45:20;;;;;;;8.02;2.33;;;;;;;20.54;59.83;100331.91;20984340;28;20432;-70
2022/06/09 12:55:28;;;;;;;7.00;1.63;;;;;;;20.40;56.44;100347.78;20982998;28;20063;-68
2022/06/09 13:05:36;;;;;;;5.03;1.33;;;;;;;20.48;52.57;100356.22;20982735;28;20048;-68
2022/06/09 13:15:58;;;;;;;6.97;1.40;;;;;;;20.45;53.25;100359.00;20932585;28;20048;-68
2022/06/09 13:26:00;;;;;;;6.05;1.40;;;;;;;20.81;59.09;100376.50;20897773;28;20506;-69
2022/06/09 13:36:24;;;;;;;7.00;2.03;;;;;;;20.06;64.29;100381.56;20896426;28;20053;-69
2022/06/09 13:46:30;;;;;;;12.10;2.90;;;;;;;16.23;100.00;100445.34;20896824;28;20053;-69
2022/06/09 13:56:34;;;;;;;12.98;3.28;;;;;;;14.66;100.00;100454.31;20895629;28;20068;-69
2022/06/09 14:06:35;;;;;;;9.95;3.00;;;;;;;14.38;100.00;100465.72;20894813;28;20048;-69
2022/06/09 14:16:42;;;;;;;6.72;2.65;;;;;;;14.58;100.00;100480.94;20950947;28;20053;-68
2022/06/09 14:26:46;;;;;;;9.07;2.47;;;;;;;15.51;100.00;100469.06;20977293;28;20045;-67
2022/06/09 14:36:49;;;;;;;6.03;2.30;;;;;;;16.19;100.00;100480.72;20975142;28;20053;-66
2022/06/09 14:46:50;;;;;;;4.82;1.20;;;;;;;17.12;100.00;100475.28;20974965;28;20048;-66
2022/06/09 14:56:52;;;;;;;4.70;0.90;;;;;;;17.61;98.22;100478.50;20974698;28;20496;-66
2022/06/09 15:06:54;;;;;;;3.15;1.08;;;;;;;18.44;91.09;100501.28;20973866;28;20041;-66
2022/06/09 15:16:55;;;;;;;8.18;1.40;;;;;;;18.73;82.19;100512.34;20914835;28;20053;-70
2022/06/09 15:26:57;;;;;;;3.08;1.00;;;;;;;18.25;80.88;100532.22;20890439;28;20087;-66
2022/06/09 15:36:58;;;;;;;2.58;0.70;;;;;;;18.16;81.22;100539.69;20889456;28;20052;-66
2022/06/09 15:47:00;;;;;;;3.30;1.00;;;;;;;18.16;74.19;100544.13;20889852;28;20049;-66
2022/06/09 15:57:04;;;;;;;4.10;0.98;;;;;;;18.30;73.88;100548.78;20889905;28;20074;-66
2022/06/09 16:07:06;;;;;;;7.22;1.30;;;;;;;18.58;77.60;100557.19;20903021;28;20052;-66
2022/06/09 16:17:07;;;;;;;6.75;1.50;;;;;;;18.46;76.80;100573.69;20966014;28;20094;-66
2022/06/09 16:27:09;;;;;;;6.60;1.10;;;;;;;18.47;75.44;100578.03;20986620;28;20044;-67
2022/06/09 16:37:12;;;;;;;3.90;1.02;;;;;;;18.35;74.90;100587.44;20986505;28;20159;-67
2022/06/09 16:47:14;;;;;;;3.80;0.95;;;;;;;18.51;78.44;100592.88;20984316;28;20048;-66
2022/06/09 16:57:15;;;;;;;3.83;0.90;;;;;;;18.58;75.35;100589.00;20984205;28;20048;-66
2022/06/09 17:07:19;;;;;;;4.30;1.20;;;;;;;18.61;75.35;100599.50;20982711;28;20051;-67
2022/06/09 17:17:22;;;;;;;6.77;1.33;;;;;;;18.90;73.06;100613.22;20919697;28;20059;-66
2022/06/09 17:27:24;;;;;;;6.05;1.10;;;;;;;18.82;69.29;100608.25;20900030;28;20076;-67
2022/06/09 17:37:25;;;;;;;3.75;1.20;;;;;;;18.73;75.44;100626.41;20898101;28;20045;-66
2022/06/09 17:47:27;;;;;;;4.97;0.85;;;;;;;18.64;75.24;100636.50;20898765;28;20135;-67
2022/06/09 17:57:28;;;;;;;3.75;1.20;;;;;;;18.44;79.90;100644.44;20898048;28;20107;-67
2022/06/09 18:07:30;;;;;;;4.35;1.20;;;;;;;18.45;84.41;100647.06;20896465;28;20052;-66
2022/06/09 18:17:32;;;;;;;6.22;1.20;;;;;;;18.41;84.93;100652.56;20960207;28;20052;-66
2022/06/09 18:27:34;;;;;;;3.67;1.10;;;;;;;18.31;88.47;100653.91;20976573;28;20044;-66
2022/06/09 18:37:36;;;;;;;6.00;1.27;;;;;;;18.18;89.47;100664.16;20977001;28;20152;-67
2022/06/09 18:47:38;;;;;;;6.30;1.38;;;;;;;18.13;90.99;100674.97;20976738;28;20485;-67
2022/06/09 18:57:40;;;;;;;5.07;1.27;;;;;;;17.86;93.24;100679.63;20975991;28;20094;-66
2022/06/09 19:07:42;;;;;;;3.85;1.17;;;;;;;17.64;97.24;100684.91;20975741;28;20207;-67
2022/06/09 19:17:47;;;;;;;4.72;1.63;;;;;;;17.38;99.59;100703.59;20910540;28;20425;-67
2022/06/09 19:27:49;;;;;;;5.57;1.90;;;;;;;17.14;100.00;100702.75;20890591;28;20056;-66
2022/06/09 19:37:50;;;;;;;4.70;1.50;;;;;;;16.72;100.00;100729.00;20897840;28;20079;-66
2022/06/09 19:47:54;;;;;;;5.50;2.08;;;;;;;16.42;100.00;100752.94;20906546;28;20041;-66
2022/06/09 19:57:56;;;;;;;5.70;2.30;;;;;;;16.07;100.00;100765.53;20905501;28;20056;-66
2022/06/09 20:07:57;;;;;;;7.20;2.13;;;;;;;15.73;100.00;100778.09;20904172;28;20521;-65
2022/06/09 20:17:59;;;;;;;5.93;2.30;;;;;;;15.47;100.00;100797.31;20971738;28;20049;-66
2022/06/09 20:28:07;;;;;;;4.90;1.83;;;;;;;15.23;100.00;100807.66;20985405;28;20135;-66
2022/06/09 20:38:18;;;;;;;5.50;2.00;;;;;;;14.98;100.00;100819.81;20984505;28;20065;-66
2022/06/09 20:48:26;;;;;;;6.40;1.98;;;;;;;14.94;100.00;100829.56;20998026;28;20118;-66
2022/06/09 20:58:28;;;;;;;5.70;2.17;;;;;;;14.87;100.00;100844.69;20983134;28;20497;-65
2022/06/09 21:08:31;;;;;;;4.50;1.83;;;;;;;14.68;100.00;100853.97;20982807;28;20117;-65
2022/06/09 21:18:33;;;;;;;9.20;2.05;;;;;;;14.61;100.00;100866.47;20909265;28;20468;-65
2022/06/09 21:28:34;;;;;;;7.43;2.10;;;;;;;14.72;100.00;100878.50;20898722;28;20106;-65
2022/06/09 21:38:36;;;;;;;5.82;1.90;;;;;;;14.60;100.00;100883.16;20895342;28;20453;-64
2022/06/09 21:48:38;;;;;;;7.95;2.20;;;;;;;14.55;100.00;100885.03;20896538;28;20518;-65
2022/06/09 21:58:40;;;;;;;5.18;2.30;;;;;;;14.43;100.00;100885.31;20895652;28;20049;-65
2022/06/09 22:08:42;;;;;;;7.07;2.55;;;;;;;14.36;100.00;100904.78;20956439;28;20048;-65
2022/06/09 22:18:44;;;;;;;6.57;2.30;;;;;;;14.22;100.00;100909.50;20984121;28;20075;-65
2022/06/09 22:28:45;;;;;;;6.22;2.38;;;;;;;14.10;100.00;100919.44;20983038;28;20493;-65
2022/06/09 22:38:47;;;;;;;5.13;2.22;;;;;;;13.95;100.00;100926.78;20981246;28;20105;-64
2022/06/09 22:48:48;;;;;;;11.55;3.58;;;;;;;13.68;100.00;100928.22;20982717;28;20386;-64
2022/06/09 22:58:51;;;;;;;4.63;2.80;;;;;;;13.47;100.00;100940.03;20982680;28;20048;-65
2022/06/09 23:08:53;;;;;;;7.43;2.95;;;;;;;13.44;100.00;100943.59;20983242;28;20680;-64
2022/06/09 23:18:54;;;;;;;7.97;2.83;;;;;;;13.37;100.00;100935.81;20998562;28;20113;-64
2022/06/09 23:28:56;;;;;;;7.28;3.22;;;;;;;13.21;100.00;100943.09;20997740;28;20055;-65
2022/06/09 23:38:58;;;;;;;10.82;3.38;;;;;;;13.06;100.00;100955.63;20996558;28;20074;-65
2022/06/09 23:48:59;;;;;;;6.60;2.90;;;;;;;12.94;100.00;100953.22;20996207;28;20066;-65
2022/06/09 23:59:00;;;;;;;6.07;2.72;;;;;;;12.87;100.00;100962.06;20995188;28;20131;-65
